sensor_id;sensor_type;location;lat;lon;timestamp;P1;durP1;ratioP1;P2;durP2;ratioP2
14292;SDS011;62290;59.420;17.842;2022-10-26T00:00:48;1.10;;;0.50;;
14292;SDS011;62290;59.420;17.842;2022-10-26T00:03:17;1.85;;;0.43;;
14292;SDS011;62290;59.420;17.842;2022-10-26T00:05:45;1.38;;;0.40;;
14292;SDS011;62290;59.420;17.842;2022-10-26T00:08:13;0.68;;;0.32;;
14292;SDS011;62290;59.420;17.842;2022-10-26T00:10:41;1.30;;;0.30;;
14292;SDS011;62290;59.420;17.842;2022-10-26T00:13:09;0.75;;;0.40;;
14292;SDS011;62290;59.420;17.842;2022-10-26T00:15:39;0.70;;;0.38;;
14292;SDS011;62290;59.420;17.842;2022-10-26T00:18:09;0.65;;;0.32;;
14292;SDS011;62290;59.420;17.842;2022-10-26T00:20:37;0.63;;;0.30;;
14292;SDS011;62290;59.420;17.842;2022-10-26T00:23:05;0.30;;;0.30;;
14292;SDS011;62290;59.420;17.842;2022-10-26T00:25:33;0.50;;;0.22;;
14292;SDS011;62290;59.420;17.842;2022-10-26T00:28:01;0.20;;;0.20;;
14292;SDS011;62290;59.420;17.842;2022-10-26T00:30:29;0.28;;;0.20;;
14292;SDS011;62290;59.420;17.842;2022-10-26T00:32:57;0.30;;;0.30;;
14292;SDS011;62290;59.420;17.842;2022-10-26T00:35:26;0.52;;;0.30;;
14292;SDS011;62290;59.420;17.842;2022-10-26T00:38:11;0.30;;;0.30;;
14292;SDS011;62290;59.420;17.842;2022-10-26T00:40:39;1.02;;;0.20;;
14292;SDS011;62290;59.420;17.842;2022-10-26T00:43:09;1.33;;;0.50;;
14292;SDS011;62290;59.420;17.842;2022-10-26T00:45:42;0.20;;;0.20;;
14292;SDS011;62290;59.420;17.842;2022-10-26T00:48:13;0.15;;;0.15;;
14292;SDS011;62290;59.420;17.842;2022-10-26T00:50:47;0.60;;;0.28;;
14292;SDS011;62290;59.420;17.842;2022-10-26T00:53:15;0.52;;;0.20;;
14292;SDS011;62290;59.420;17.842;2022-10-26T00:55:44;0.30;;;0.20;;
14292;SDS011;62290;59.420;17.842;2022-10-26T00:58:14;0.28;;;0.13;;
14292;SDS011;62290;59.420;17.842;2022-10-26T01:00:44;0.20;;;0.20;;
14292;SDS011;62290;59.420;17.842;2022-10-26T01:03:13;0.35;;;0.35;;
14292;SDS011;62290;59.420;17.842;2022-10-26T01:05:42;3.50;;;0.35;;
14292;SDS011;62290;59.420;17.842;2022-10-26T01:08:14;0.20;;;0.20;;
14292;SDS011;62290;59.420;17.842;2022-10-26T01:10:43;0.20;;;0.20;;
14292;SDS011;62290;59.420;17.842;2022-10-26T01:13:11;0.60;;;0.30;;
14292;SDS011;62290;59.420;17.842;2022-10-26T01:15:44;0.20;;;0.20;;
14292;SDS011;62290;59.420;17.842;2022-10-26T01:18:19;0.35;;;0.20;;
14292;SDS011;62290;59.420;17.842;2022-10-26T01:24:10;0.73;;;0.22;;
14292;SDS011;62290;59.420;17.842;2022-10-26T01:27:00;0.25;;;0.25;;
14292;SDS011;62290;59.420;17.842;2022-10-26T01:29:47;0.10;;;0.10;;
14292;SDS011;62290;59.420;17.842;2022-10-26T01:32:36;0.10;;;0.10;;
14292;SDS011;62290;59.420;17.842;2022-10-26T01:35:12;0.10;;;0.10;;
14292;SDS011;62290;59.420;17.842;2022-10-26T01:37:45;0.32;;;0.20;;
14292;SDS011;62290;59.420;17.842;2022-10-26T01:40:20;0.10;;;0.10;;
14292;SDS011;62290;59.420;17.842;2022-10-26T01:42:54;0.10;;;0.10;;
14292;SDS011;62290;59.420;17.842;2022-10-26T01:45:25;0.10;;;0.10;;
14292;SDS011;62290;59.420;17.842;2022-10-26T01:47:56;0.80;;;0.30;;
14292;SDS011;62290;59.420;17.842;2022-10-26T01:50:26;0.20;;;0.20;;
14292;SDS011;62290;59.420;17.842;2022-10-26T01:52:55;0.10;;;0.10;;
14292;SDS011;62290;59.420;17.842;2022-10-26T01:55:39;0.68;;;0.22;;
14292;SDS011;62290;59.420;17.842;2022-10-26T01:58:14;0.10;;;0.10;;
14292;SDS011;62290;59.420;17.842;2022-10-26T02:00:58;0.45;;;0.10;;
14292;SDS011;62290;59.420;17.842;2022-10-26T02:03:36;0.15;;;0.15;;
14292;SDS011;62290;59.420;17.842;2022-10-26T02:06:14;0.13;;;0.13;;
14292;SDS011;62290;59.420;17.842;2022-10-26T02:08:54;0.38;;;0.15;;
14292;SDS011;62290;59.420;17.842;2022-10-26T02:11:31;0.22;;;0.20;;
14292;SDS011;62290;59.420;17.842;2022-10-26T02:14:06;0.15;;;0.15;;
14292;SDS011;62290;59.420;17.842;2022-10-26T02:16:51;0.10;;;0.10;;
14292;SDS011;62290;59.420;17.842;2022-10-26T02:19:28;0.32;;;0.10;;
14292;SDS011;62290;59.420;17.842;2022-10-26T02:22:01;0.10;;;0.10;;
14292;SDS011;62290;59.420;17.842;2022-10-26T02:24:36;1.05;;;0.22;;
14292;SDS011;62290;59.420;17.842;2022-10-26T02:27:06;0.38;;;0.10;;
14292;SDS011;62290;59.420;17.842;2022-10-26T02:29:39;0.20;;;0.20;;
14292;SDS011;62290;59.420;17.842;2022-10-26T02:32:10;0.25;;;0.10;;
14292;SDS011;62290;59.420;17.842;2022-10-26T02:34:40;0.20;;;0.17;;
14292;SDS011;62290;59.420;17.842;2022-10-26T02:37:12;0.30;;;0.20;;
14292;SDS011;62290;59.420;17.842;2022-10-26T02:39:44;0.52;;;0.20;;
14292;SDS011;62290;59.420;17.842;2022-10-26T02:42:14;0.50;;;0.30;;
14292;SDS011;62290;59.420;17.842;2022-10-26T02:44:45;0.30;;;0.30;;
14292;SDS011;62290;59.420;17.842;2022-10-26T02:47:16;0.13;;;0.13;;
14292;SDS011;62290;59.420;17.842;2022-10-26T02:49:47;0.10;;;0.10;;
14292;SDS011;62290;59.420;17.842;2022-10-26T02:52:16;0.82;;;0.20;;
14292;SDS011;62290;59.420;17.842;2022-10-26T02:54:50;0.22;;;0.20;;
14292;SDS011;62290;59.420;17.842;2022-10-26T02:57:22;1.55;;;0.10;;
14292;SDS011;62290;59.420;17.842;2022-10-26T02:59:53;0.15;;;0.15;;
14292;SDS011;62290;59.420;17.842;2022-10-26T03:02:23;0.10;;;0.10;;
14292;SDS011;62290;59.420;17.842;2022-10-26T03:04:52;0.13;;;0.13;;
14292;SDS011;62290;59.420;17.842;2022-10-26T03:07:22;0.45;;;0.10;;
14292;SDS011;62290;59.420;17.842;2022-10-26T03:09:51;0.30;;;0.28;;
14292;SDS011;62290;59.420;17.842;2022-10-26T03:12:19;0.25;;;0.20;;
14292;SDS011;62290;59.420;17.842;2022-10-26T03:14:46;0.75;;;0.20;;
14292;SDS011;62290;59.420;17.842;2022-10-26T03:17:14;0.35;;;0.13;;
14292;SDS011;62290;59.420;17.842;2022-10-26T03:19:42;0.45;;;0.10;;
14292;SDS011;62290;59.420;17.842;2022-10-26T03:22:12;0.90;;;0.20;;
14292;SDS011;62290;59.420;17.842;2022-10-26T03:24:39;0.52;;;0.15;;
14292;SDS011;62290;59.420;17.842;2022-10-26T03:27:07;0.10;;;0.10;;
14292;SDS011;62290;59.420;17.842;2022-10-26T03:29:35;0.30;;;0.30;;
14292;SDS011;62290;59.420;17.842;2022-10-26T03:32:03;0.10;;;0.10;;
14292;SDS011;62290;59.420;17.842;2022-10-26T03:34:32;0.40;;;0.20;;
14292;SDS011;62290;59.420;17.842;2022-10-26T03:37:00;0.30;;;0.10;;
14292;SDS011;62290;59.420;17.842;2022-10-26T03:39:29;0.80;;;0.10;;
14292;SDS011;62290;59.420;17.842;2022-10-26T03:41:57;0.10;;;0.10;;
14292;SDS011;62290;59.420;17.842;2022-10-26T03:44:25;0.85;;;0.38;;
14292;SDS011;62290;59.420;17.842;2022-10-26T03:46:52;0.30;;;0.20;;
14292;SDS011;62290;59.420;17.842;2022-10-26T03:49:20;0.68;;;0.40;;
14292;SDS011;62290;59.420;17.842;2022-10-26T03:51:48;2.25;;;0.20;;
14292;SDS011;62290;59.420;17.842;2022-10-26T03:54:16;0.75;;;0.38;;
14292;SDS011;62290;59.420;17.842;2022-10-26T03:56:46;0.10;;;0.10;;
14292;SDS011;62290;59.420;17.842;2022-10-26T03:59:20;1.38;;;0.20;;
14292;SDS011;62290;59.420;17.842;2022-10-26T04:01:48;0.10;;;0.10;;
14292;SDS011;62290;59.420;17.842;2022-10-26T04:04:22;1.45;;;0.20;;
14292;SDS011;62290;59.420;17.842;2022-10-26T04:06:51;0.17;;;0.17;;
14292;SDS011;62290;59.420;17.842;2022-10-26T04:09:19;0.20;;;0.20;;
14292;SDS011;62290;59.420;17.842;2022-10-26T04:11:48;0.28;;;0.20;;
14292;SDS011;62290;59.420;17.842;2022-10-26T04:14:16;0.40;;;0.20;;
14292;SDS011;62290;59.420;17.842;2022-10-26T04:16:44;1.50;;;0.20;;
14292;SDS011;62290;59.420;17.842;2022-10-26T04:19:12;0.20;;;0.20;;
14292;SDS011;62290;59.420;17.842;2022-10-26T04:21:40;0.13;;;0.10;;
14292;SDS011;62290;59.420;17.842;2022-10-26T04:24:08;0.20;;;0.20;;
14292;SDS011;62290;59.420;17.842;2022-10-26T04:26:37;0.17;;;0.13;;
14292;SDS011;62290;59.420;17.842;2022-10-26T04:29:06;0.75;;;0.20;;
14292;SDS011;62290;59.420;17.842;2022-10-26T04:31:34;0.10;;;0.10;;
14292;SDS011;62290;59.420;17.842;2022-10-26T04:34:02;0.20;;;0.20;;
14292;SDS011;62290;59.420;17.842;2022-10-26T04:36:30;0.55;;;0.20;;
14292;SDS011;62290;59.420;17.842;2022-10-26T04:38:58;0.45;;;0.40;;
14292;SDS011;62290;59.420;17.842;2022-10-26T04:41:26;0.40;;;0.28;;
14292;SDS011;62290;59.420;17.842;2022-10-26T04:43:54;1.95;;;0.40;;
14292;SDS011;62290;59.420;17.842;2022-10-26T04:46:23;0.20;;;0.20;;
14292;SDS011;62290;59.420;17.842;2022-10-26T04:48:51;0.20;;;0.20;;
14292;SDS011;62290;59.420;17.842;2022-10-26T04:51:19;0.70;;;0.10;;
14292;SDS011;62290;59.420;17.842;2022-10-26T04:53:47;0.40;;;0.20;;
14292;SDS011;62290;59.420;17.842;2022-10-26T04:56:15;0.10;;;0.10;;
14292;SDS011;62290;59.420;17.842;2022-10-26T04:58:43;1.17;;;0.28;;
14292;SDS011;62290;59.420;17.842;2022-10-26T05:01:11;0.30;;;0.30;;
14292;SDS011;62290;59.420;17.842;2022-10-26T05:03:40;0.20;;;0.20;;
14292;SDS011;62290;59.420;17.842;2022-10-26T05:06:08;0.50;;;0.30;;
14292;SDS011;62290;59.420;17.842;2022-10-26T05:08:36;0.95;;;0.10;;
14292;SDS011;62290;59.420;17.842;2022-10-26T05:11:04;0.32;;;0.20;;
14292;SDS011;62290;59.420;17.842;2022-10-26T05:13:32;0.63;;;0.20;;
14292;SDS011;62290;59.420;17.842;2022-10-26T05:16:00;0.30;;;0.10;;
14292;SDS011;62290;59.420;17.842;2022-10-26T05:18:27;1.35;;;0.25;;
14292;SDS011;62290;59.420;17.842;2022-10-26T05:20:57;0.30;;;0.20;;
14292;SDS011;62290;59.420;17.842;2022-10-26T05:23:25;0.17;;;0.17;;
14292;SDS011;62290;59.420;17.842;2022-10-26T05:25:53;0.52;;;0.20;;
14292;SDS011;62290;59.420;17.842;2022-10-26T05:28:22;0.98;;;0.20;;
14292;SDS011;62290;59.420;17.842;2022-10-26T05:30:50;0.38;;;0.20;;
14292;SDS011;62290;59.420;17.842;2022-10-26T05:33:18;0.20;;;0.20;;
14292;SDS011;62290;59.420;17.842;2022-10-26T05:35:45;1.23;;;0.20;;
14292;SDS011;62290;59.420;17.842;2022-10-26T05:38:16;4.43;;;0.25;;
14292;SDS011;62290;59.420;17.842;2022-10-26T05:40:47;3.67;;;0.20;;
14292;SDS011;62290;59.420;17.842;2022-10-26T05:43:15;0.60;;;0.30;;
14292;SDS011;62290;59.420;17.842;2022-10-26T05:45:44;0.28;;;0.20;;
14292;SDS011;62290;59.420;17.842;2022-10-26T05:48:12;4.03;;;0.52;;
14292;SDS011;62290;59.420;17.842;2022-10-26T05:50:40;6.13;;;0.50;;
14292;SDS011;62290;59.420;17.842;2022-10-26T05:53:08;2.83;;;1.10;;
14292;SDS011;62290;59.420;17.842;2022-10-26T05:55:37;7.13;;;0.50;;
14292;SDS011;62290;59.420;17.842;2022-10-26T05:58:08;7.40;;;0.93;;
14292;SDS011;62290;59.420;17.842;2022-10-26T06:00:39;2.17;;;0.90;;
14292;SDS011;62290;59.420;17.842;2022-10-26T06:03:21;5.00;;;0.80;;
14292;SDS011;62290;59.420;17.842;2022-10-26T06:06:00;3.88;;;0.40;;
14292;SDS011;62290;59.420;17.842;2022-10-26T06:08:32;2.28;;;0.90;;
14292;SDS011;62290;59.420;17.842;2022-10-26T06:11:02;1.33;;;0.60;;
14292;SDS011;62290;59.420;17.842;2022-10-26T06:13:32;0.98;;;0.40;;
14292;SDS011;62290;59.420;17.842;2022-10-26T06:16:03;4.63;;;0.60;;
14292;SDS011;62290;59.420;17.842;2022-10-26T06:18:50;2.17;;;0.50;;
14292;SDS011;62290;59.420;17.842;2022-10-26T06:21:34;1.67;;;0.55;;
14292;SDS011;62290;59.420;17.842;2022-10-26T06:24:16;2.65;;;0.57;;
14292;SDS011;62290;59.420;17.842;2022-10-26T06:26:51;3.47;;;1.30;;
14292;SDS011;62290;59.420;17.842;2022-10-26T06:29:31;1.27;;;0.40;;
14292;SDS011;62290;59.420;17.842;2022-10-26T06:32:08;1.10;;;0.32;;
14292;SDS011;62290;59.420;17.842;2022-10-26T06:34:38;1.67;;;0.22;;
14292;SDS011;62290;59.420;17.842;2022-10-26T06:37:11;0.68;;;0.38;;
14292;SDS011;62290;59.420;17.842;2022-10-26T06:39:41;3.72;;;0.40;;
14292;SDS011;62290;59.420;17.842;2022-10-26T06:42:18;2.15;;;0.20;;
14292;SDS011;62290;59.420;17.842;2022-10-26T06:44:47;2.88;;;0.40;;
14292;SDS011;62290;59.420;17.842;2022-10-26T06:47:17;2.42;;;0.50;;
14292;SDS011;62290;59.420;17.842;2022-10-26T06:49:54;2.95;;;0.30;;
14292;SDS011;62290;59.420;17.842;2022-10-26T06:52:28;0.38;;;0.20;;
14292;SDS011;62290;59.420;17.842;2022-10-26T06:55:02;1.75;;;0.47;;
14292;SDS011;62290;59.420;17.842;2022-10-26T06:57:33;1.17;;;0.32;;
14292;SDS011;62290;59.420;17.842;2022-10-26T07:00:03;0.80;;;0.22;;
14292;SDS011;62290;59.420;17.842;2022-10-26T07:02:33;0.88;;;0.30;;
14292;SDS011;62290;59.420;17.842;2022-10-26T07:05:01;1.65;;;0.30;;
14292;SDS011;62290;59.420;17.842;2022-10-26T07:07:30;0.30;;;0.20;;
14292;SDS011;62290;59.420;17.842;2022-10-26T07:09:58;0.68;;;0.20;;
14292;SDS011;62290;59.420;17.842;2022-10-26T07:12:27;1.13;;;0.22;;
14292;SDS011;62290;59.420;17.842;2022-10-26T07:14:59;0.35;;;0.20;;
14292;SDS011;62290;59.420;17.842;2022-10-26T07:17:27;0.68;;;0.13;;
14292;SDS011;62290;59.420;17.842;2022-10-26T07:19:55;1.02;;;0.20;;
14292;SDS011;62290;59.420;17.842;2022-10-26T07:22:24;0.82;;;0.50;;
14292;SDS011;62290;59.420;17.842;2022-10-26T07:24:52;0.68;;;0.20;;
14292;SDS011;62290;59.420;17.842;2022-10-26T07:27:24;0.38;;;0.30;;
14292;SDS011;62290;59.420;17.842;2022-10-26T07:29:52;0.40;;;0.20;;
14292;SDS011;62290;59.420;17.842;2022-10-26T07:32:21;0.20;;;0.20;;
14292;SDS011;62290;59.420;17.842;2022-10-26T07:34:49;0.63;;;0.20;;
14292;SDS011;62290;59.420;17.842;2022-10-26T07:37:17;0.43;;;0.20;;
14292;SDS011;62290;59.420;17.842;2022-10-26T07:39:45;0.30;;;0.17;;
14292;SDS011;62290;59.420;17.842;2022-10-26T07:42:13;0.28;;;0.20;;
14292;SDS011;62290;59.420;17.842;2022-10-26T07:44:41;0.13;;;0.13;;
14292;SDS011;62290;59.420;17.842;2022-10-26T07:47:09;0.32;;;0.13;;
14292;SDS011;62290;59.420;17.842;2022-10-26T07:49:39;0.88;;;0.30;;
14292;SDS011;62290;59.420;17.842;2022-10-26T07:52:07;0.20;;;0.10;;
14292;SDS011;62290;59.420;17.842;2022-10-26T07:54:36;0.17;;;0.10;;
14292;SDS011;62290;59.420;17.842;2022-10-26T07:57:04;0.17;;;0.17;;
14292;SDS011;62290;59.420;17.842;2022-10-26T07:59:32;2.05;;;0.30;;
14292;SDS011;62290;59.420;17.842;2022-10-26T08:02:00;0.68;;;0.20;;
14292;SDS011;62290;59.420;17.842;2022-10-26T08:04:28;0.60;;;0.30;;
14292;SDS011;62290;59.420;17.842;2022-10-26T08:06:57;0.20;;;0.20;;
14292;SDS011;62290;59.420;17.842;2022-10-26T08:09:25;0.50;;;0.17;;
14292;SDS011;62290;59.420;17.842;2022-10-26T08:11:53;1.02;;;0.35;;
14292;SDS011;62290;59.420;17.842;2022-10-26T08:14:21;1.58;;;0.20;;
14292;SDS011;62290;59.420;17.842;2022-10-26T08:16:49;0.20;;;0.20;;
14292;SDS011;62290;59.420;17.842;2022-10-26T08:19:18;0.20;;;0.20;;
14292;SDS011;62290;59.420;17.842;2022-10-26T08:21:46;0.22;;;0.20;;
14292;SDS011;62290;59.420;17.842;2022-10-26T08:24:15;0.25;;;0.25;;
14292;SDS011;62290;59.420;17.842;2022-10-26T08:26:43;0.20;;;0.20;;
14292;SDS011;62290;59.420;17.842;2022-10-26T08:29:11;0.90;;;0.55;;
14292;SDS011;62290;59.420;17.842;2022-10-26T08:31:39;0.70;;;0.40;;
14292;SDS011;62290;59.420;17.842;2022-10-26T08:34:07;0.60;;;0.22;;
14292;SDS011;62290;59.420;17.842;2022-10-26T08:36:35;0.13;;;0.13;;
14292;SDS011;62290;59.420;17.842;2022-10-26T08:39:03;0.68;;;0.30;;
14292;SDS011;62290;59.420;17.842;2022-10-26T08:41:34;0.93;;;0.20;;
14292;SDS011;62290;59.420;17.842;2022-10-26T08:44:05;2.53;;;0.30;;
14292;SDS011;62290;59.420;17.842;2022-10-26T08:46:47;1.40;;;0.98;;
14292;SDS011;62290;59.420;17.842;2022-10-26T08:49:21;2.40;;;0.60;;
14292;SDS011;62290;59.420;17.842;2022-10-26T08:51:52;1.67;;;0.25;;
14292;SDS011;62290;59.420;17.842;2022-10-26T08:54:27;0.52;;;0.30;;
14292;SDS011;62290;59.420;17.842;2022-10-26T08:57:03;0.35;;;0.30;;
14292;SDS011;62290;59.420;17.842;2022-10-26T08:59:42;0.35;;;0.20;;
14292;SDS011;62290;59.420;17.842;2022-10-26T09:02:13;0.20;;;0.20;;
14292;SDS011;62290;59.420;17.842;2022-10-26T09:04:42;0.70;;;0.60;;
14292;SDS011;62290;59.420;17.842;2022-10-26T09:07:13;0.70;;;0.47;;
14292;SDS011;62290;59.420;17.842;2022-10-26T09:09:54;0.28;;;0.20;;
14292;SDS011;62290;59.420;17.842;2022-10-26T09:12:30;0.20;;;0.20;;
14292;SDS011;62290;59.420;17.842;2022-10-26T09:15:11;0.20;;;0.20;;
14292;SDS011;62290;59.420;17.842;2022-10-26T09:17:47;0.50;;;0.40;;
14292;SDS011;62290;59.420;17.842;2022-10-26T09:23:19;1.00;;;0.25;;
14292;SDS011;62290;59.420;17.842;2022-10-26T09:25:58;0.45;;;0.30;;
14292;SDS011;62290;59.420;17.842;2022-10-26T09:28:29;0.30;;;0.28;;
14292;SDS011;62290;59.420;17.842;2022-10-26T09:31:02;0.20;;;0.20;;
14292;SDS011;62290;59.420;17.842;2022-10-26T09:33:33;0.25;;;0.25;;
14292;SDS011;62290;59.420;17.842;2022-10-26T09:36:06;0.20;;;0.20;;
14292;SDS011;62290;59.420;17.842;2022-10-26T09:38:43;0.20;;;0.20;;
14292;SDS011;62290;59.420;17.842;2022-10-26T09:41:16;0.47;;;0.22;;
14292;SDS011;62290;59.420;17.842;2022-10-26T09:43:59;0.10;;;0.10;;
14292;SDS011;62290;59.420;17.842;2022-10-26T09:46:33;0.20;;;0.20;;
14292;SDS011;62290;59.420;17.842;2022-10-26T09:49:16;1.88;;;0.30;;
14292;SDS011;62290;59.420;17.842;2022-10-26T09:51:47;1.75;;;0.30;;
14292;SDS011;62290;59.420;17.842;2022-10-26T09:54:16;0.75;;;0.40;;
14292;SDS011;62290;59.420;17.842;2022-10-26T09:56:48;0.15;;;0.15;;
14292;SDS011;62290;59.420;17.842;2022-10-26T09:59:20;0.90;;;0.30;;
14292;SDS011;62290;59.420;17.842;2022-10-26T10:01:50;0.20;;;0.20;;
14292;SDS011;62290;59.420;17.842;2022-10-26T10:04:19;0.40;;;0.30;;
14292;SDS011;62290;59.420;17.842;2022-10-26T10:06:49;0.15;;;0.15;;
14292;SDS011;62290;59.420;17.842;2022-10-26T10:09:19;0.47;;;0.20;;
14292;SDS011;62290;59.420;17.842;2022-10-26T10:11:49;0.10;;;0.10;;
14292;SDS011;62290;59.420;17.842;2022-10-26T10:14:23;0.20;;;0.20;;
14292;SDS011;62290;59.420;17.842;2022-10-26T10:16:53;0.15;;;0.13;;
14292;SDS011;62290;59.420;17.842;2022-10-26T10:19:24;0.20;;;0.20;;
14292;SDS011;62290;59.420;17.842;2022-10-26T10:21:53;0.20;;;0.20;;
14292;SDS011;62290;59.420;17.842;2022-10-26T10:24:24;0.20;;;0.20;;
14292;SDS011;62290;59.420;17.842;2022-10-26T10:26:55;0.25;;;0.25;;
14292;SDS011;62290;59.420;17.842;2022-10-26T10:29:26;0.20;;;0.20;;
14292;SDS011;62290;59.420;17.842;2022-10-26T10:31:54;0.70;;;0.32;;
14292;SDS011;62290;59.420;17.842;2022-10-26T10:34:23;0.30;;;0.30;;
14292;SDS011;62290;59.420;17.842;2022-10-26T10:36:51;0.20;;;0.20;;
14292;SDS011;62290;59.420;17.842;2022-10-26T10:39:36;0.60;;;0.30;;
14292;SDS011;62290;59.420;17.842;2022-10-26T10:42:13;0.20;;;0.20;;
14292;SDS011;62290;59.420;17.842;2022-10-26T10:44:46;0.40;;;0.22;;
14292;SDS011;62290;59.420;17.842;2022-10-26T10:47:20;0.28;;;0.20;;
14292;SDS011;62290;59.420;17.842;2022-10-26T10:49:51;0.20;;;0.20;;
14292;SDS011;62290;59.420;17.842;2022-10-26T10:52:23;0.45;;;0.20;;
14292;SDS011;62290;59.420;17.842;2022-10-26T10:54:55;1.33;;;0.43;;
14292;SDS011;62290;59.420;17.842;2022-10-26T10:57:37;0.20;;;0.20;;
14292;SDS011;62290;59.420;17.842;2022-10-26T11:00:22;0.10;;;0.10;;
14292;SDS011;62290;59.420;17.842;2022-10-26T11:06:02;0.85;;;0.40;;
14292;SDS011;62290;59.420;17.842;2022-10-26T11:08:36;0.15;;;0.15;;
14292;SDS011;62290;59.420;17.842;2022-10-26T11:11:08;0.20;;;0.20;;
14292;SDS011;62290;59.420;17.842;2022-10-26T11:13:39;1.05;;;0.25;;
14292;SDS011;62290;59.420;17.842;2022-10-26T11:16:15;0.28;;;0.20;;
14292;SDS011;62290;59.420;17.842;2022-10-26T11:18:49;0.10;;;0.10;;
14292;SDS011;62290;59.420;17.842;2022-10-26T11:21:24;0.25;;;0.25;;
14292;SDS011;62290;59.420;17.842;2022-10-26T11:23:56;0.20;;;0.20;;
14292;SDS011;62290;59.420;17.842;2022-10-26T11:26:38;0.20;;;0.20;;
14292;SDS011;62290;59.420;17.842;2022-10-26T11:29:16;0.32;;;0.30;;
14292;SDS011;62290;59.420;17.842;2022-10-26T11:31:52;0.35;;;0.20;;
14292;SDS011;62290;59.420;17.842;2022-10-26T11:34:28;0.22;;;0.20;;
14292;SDS011;62290;59.420;17.842;2022-10-26T11:37:02;0.30;;;0.30;;
14292;SDS011;62290;59.420;17.842;2022-10-26T11:39:36;0.22;;;0.22;;
14292;SDS011;62290;59.420;17.842;2022-10-26T11:42:15;0.30;;;0.30;;
14292;SDS011;62290;59.420;17.842;2022-10-26T11:44:49;0.50;;;0.40;;
14292;SDS011;62290;59.420;17.842;2022-10-26T11:47:22;1.13;;;0.30;;
14292;SDS011;62290;59.420;17.842;2022-10-26T11:49:58;0.35;;;0.32;;
14292;SDS011;62290;59.420;17.842;2022-10-26T11:52:32;0.45;;;0.40;;
14292;SDS011;62290;59.420;17.842;2022-10-26T11:55:07;0.43;;;0.43;;
14292;SDS011;62290;59.420;17.842;2022-10-26T11:57:37;0.40;;;0.30;;
14292;SDS011;62290;59.420;17.842;2022-10-26T12:00:07;3.10;;;0.30;;
14292;SDS011;62290;59.420;17.842;2022-10-26T12:02:45;1.77;;;0.50;;
14292;SDS011;62290;59.420;17.842;2022-10-26T12:05:18;0.70;;;0.20;;
14292;SDS011;62290;59.420;17.842;2022-10-26T12:07:49;0.50;;;0.30;;
14292;SDS011;62290;59.420;17.842;2022-10-26T12:10:22;0.75;;;0.40;;
14292;SDS011;62290;59.420;17.842;2022-10-26T12:13:00;1.45;;;0.68;;
14292;SDS011;62290;59.420;17.842;2022-10-26T12:15:39;1.48;;;0.57;;
14292;SDS011;62290;59.420;17.842;2022-10-26T12:18:33;0.70;;;0.60;;
14292;SDS011;62290;59.420;17.842;2022-10-26T12:21:21;0.85;;;0.40;;
14292;SDS011;62290;59.420;17.842;2022-10-26T12:23:53;0.32;;;0.32;;
14292;SDS011;62290;59.420;17.842;2022-10-26T12:29:29;0.43;;;0.40;;
14292;SDS011;62290;59.420;17.842;2022-10-26T12:32:00;0.68;;;0.55;;
14292;SDS011;62290;59.420;17.842;2022-10-26T12:37:31;0.90;;;0.60;;
14292;SDS011;62290;59.420;17.842;2022-10-26T12:52:33;1.00;;;0.60;;
14292;SDS011;62290;59.420;17.842;2022-10-26T13:04:51;0.98;;;0.70;;
14292;SDS011;62290;59.420;17.842;2022-10-26T13:07:41;1.08;;;0.80;;
14292;SDS011;62290;59.420;17.842;2022-10-26T13:10:16;1.25;;;0.80;;
14292;SDS011;62290;59.420;17.842;2022-10-26T13:12:47;0.68;;;0.50;;
14292;SDS011;62290;59.420;17.842;2022-10-26T13:15:19;0.90;;;0.80;;
14292;SDS011;62290;59.420;17.842;2022-10-26T13:17:57;1.02;;;0.80;;
14292;SDS011;62290;59.420;17.842;2022-10-26T13:20:34;0.95;;;0.80;;
14292;SDS011;62290;59.420;17.842;2022-10-26T13:23:13;1.15;;;0.77;;
14292;SDS011;62290;59.420;17.842;2022-10-26T13:26:00;0.90;;;0.75;;
14292;SDS011;62290;59.420;17.842;2022-10-26T13:28:30;0.77;;;0.77;;
14292;SDS011;62290;59.420;17.842;2022-10-26T13:31:09;0.95;;;0.70;;
14292;SDS011;62290;59.420;17.842;2022-10-26T13:33:47;1.30;;;0.90;;
14292;SDS011;62290;59.420;17.842;2022-10-26T13:36:21;2.10;;;0.80;;
14292;SDS011;62290;59.420;17.842;2022-10-26T13:38:57;0.95;;;0.82;;
14292;SDS011;62290;59.420;17.842;2022-10-26T13:41:32;1.13;;;0.95;;
14292;SDS011;62290;59.420;17.842;2022-10-26T13:44:02;0.90;;;0.75;;
14292;SDS011;62290;59.420;17.842;2022-10-26T13:46:33;1.95;;;1.17;;
14292;SDS011;62290;59.420;17.842;2022-10-26T13:49:04;1.33;;;0.95;;
14292;SDS011;62290;59.420;17.842;2022-10-26T13:51:42;1.10;;;0.90;;
14292;SDS011;62290;59.420;17.842;2022-10-26T13:54:17;0.82;;;0.80;;
14292;SDS011;62290;59.420;17.842;2022-10-26T13:56:55;1.52;;;0.93;;
14292;SDS011;62290;59.420;17.842;2022-10-26T13:59:29;2.42;;;1.45;;
14292;SDS011;62290;59.420;17.842;2022-10-26T14:02:06;1.92;;;1.42;;
14292;SDS011;62290;59.420;17.842;2022-10-26T14:04:44;0.98;;;0.88;;
14292;SDS011;62290;59.420;17.842;2022-10-26T14:07:17;1.83;;;1.60;;
14292;SDS011;62290;59.420;17.842;2022-10-26T14:09:50;1.48;;;1.10;;
14292;SDS011;62290;59.420;17.842;2022-10-26T14:12:20;1.77;;;1.00;;
14292;SDS011;62290;59.420;17.842;2022-10-26T14:14:49;1.88;;;1.00;;
14292;SDS011;62290;59.420;17.842;2022-10-26T14:17:19;1.48;;;1.10;;
14292;SDS011;62290;59.420;17.842;2022-10-26T14:19:49;1.30;;;1.17;;
14292;SDS011;62290;59.420;17.842;2022-10-26T14:22:18;1.33;;;1.20;;
14292;SDS011;62290;59.420;17.842;2022-10-26T14:24:51;0.70;;;0.70;;
14292;SDS011;62290;59.420;17.842;2022-10-26T14:27:26;1.58;;;0.98;;
14292;SDS011;62290;59.420;17.842;2022-10-26T14:29:57;1.00;;;0.85;;
14292;SDS011;62290;59.420;17.842;2022-10-26T14:32:46;1.08;;;0.90;;
14292;SDS011;62290;59.420;17.842;2022-10-26T14:35:15;1.08;;;0.98;;
14292;SDS011;62290;59.420;17.842;2022-10-26T14:37:44;1.60;;;0.95;;
14292;SDS011;62290;59.420;17.842;2022-10-26T14:40:17;1.00;;;0.80;;
14292;SDS011;62290;59.420;17.842;2022-10-26T14:42:47;1.40;;;0.90;;
14292;SDS011;62290;59.420;17.842;2022-10-26T14:45:21;2.70;;;0.98;;
14292;SDS011;62290;59.420;17.842;2022-10-26T14:48:14;1.08;;;0.88;;
14292;SDS011;62290;59.420;17.842;2022-10-26T14:50:57;1.35;;;0.90;;
14292;SDS011;62290;59.420;17.842;2022-10-26T14:53:29;0.70;;;0.60;;
14292;SDS011;62290;59.420;17.842;2022-10-26T14:56:04;1.00;;;0.70;;
14292;SDS011;62290;59.420;17.842;2022-10-26T14:58:47;1.38;;;0.70;;
14292;SDS011;62290;59.420;17.842;2022-10-26T15:01:21;1.20;;;0.70;;
14292;SDS011;62290;59.420;17.842;2022-10-26T15:03:55;0.75;;;0.73;;
14292;SDS011;62290;59.420;17.842;2022-10-26T15:06:32;0.77;;;0.70;;
14292;SDS011;62290;59.420;17.842;2022-10-26T15:12:05;0.60;;;0.60;;
14292;SDS011;62290;59.420;17.842;2022-10-26T15:14:34;0.68;;;0.60;;
14292;SDS011;62290;59.420;17.842;2022-10-26T15:17:03;0.80;;;0.60;;
14292;SDS011;62290;59.420;17.842;2022-10-26T15:19:31;0.88;;;0.50;;
14292;SDS011;62290;59.420;17.842;2022-10-26T15:21:59;0.98;;;0.57;;
14292;SDS011;62290;59.420;17.842;2022-10-26T15:24:31;0.40;;;0.40;;
14292;SDS011;62290;59.420;17.842;2022-10-26T15:27:11;1.45;;;0.70;;
14292;SDS011;62290;59.420;17.842;2022-10-26T15:29:43;2.05;;;0.50;;
14292;SDS011;62290;59.420;17.842;2022-10-26T15:32:19;0.40;;;0.30;;
14292;SDS011;62290;59.420;17.842;2022-10-26T15:37:59;0.55;;;0.50;;
14292;SDS011;62290;59.420;17.842;2022-10-26T15:40:27;0.50;;;0.50;;
14292;SDS011;62290;59.420;17.842;2022-10-26T15:42:59;0.40;;;0.40;;
14292;SDS011;62290;59.420;17.842;2022-10-26T15:45:28;0.30;;;0.30;;